createdAt,value
2022-10-05T00:00:00.315Z,8.67
2022-10-05T00:01:05.833Z,6.47
2022-10-05T00:02:24.760Z,5.73
2022-10-05T00:03:36.957Z,6.23
2022-10-05T00:04:38.577Z,7.40
2022-10-05T00:05:40.665Z,6.53
2022-10-05T00:06:44.760Z,6.77
2022-10-05T00:07:46.560Z,7.03
2022-10-05T00:08:48.317Z,7.10
2022-10-05T00:09:56.336Z,6.43
2022-10-05T00:10:57.887Z,7.77
2022-10-05T00:11:59.743Z,8.57
2022-10-05T00:13:01.311Z,6.33
2022-10-05T00:14:14.689Z,6.27
2022-10-05T00:15:20.686Z,7.23
2022-10-05T00:16:22.328Z,6.70
2022-10-05T00:17:27.303Z,7.57
2022-10-05T00:18:28.914Z,6.20
2022-10-05T00:19:38.652Z,6.37
2022-10-05T00:20:41.539Z,9.13
2022-10-05T00:21:43.061Z,8.63
2022-10-05T00:22:44.665Z,7.30
2022-10-05T00:23:46.760Z,7.43
2022-10-05T00:24:50.451Z,6.10
2022-10-05T00:25:52.114Z,6.80
2022-10-05T00:26:57.779Z,6.40
2022-10-05T00:28:01.332Z,6.53
2022-10-05T00:29:18.737Z,5.90
2022-10-05T00:30:21.653Z,5.93
2022-10-05T00:31:26.826Z,6.63
2022-10-05T00:32:28.377Z,6.53
2022-10-05T00:33:29.872Z,6.63
2022-10-05T00:34:34.142Z,6.30
2022-10-05T00:35:36.700Z,7.57
2022-10-05T00:36:39.665Z,7.00
2022-10-05T00:37:42.025Z,6.77
2022-10-05T00:38:44.916Z,6.23
2022-10-05T00:39:46.945Z,6.50
2022-10-05T00:41:10.467Z,5.97
2022-10-05T00:42:46.083Z,7.37
2022-10-05T00:44:10.579Z,5.70
2022-10-05T00:45:27.399Z,6.17
2022-10-05T00:46:43.686Z,7.43
2022-10-05T00:47:45.443Z,5.70
2022-10-05T00:48:53.022Z,6.60
2022-10-05T00:50:18.220Z,6.03
2022-10-05T00:51:28.507Z,5.57
2022-10-05T00:52:41.097Z,5.43
2022-10-05T00:53:43.387Z,6.70
2022-10-05T00:54:49.353Z,5.47
2022-10-05T00:56:07.607Z,6.23
2022-10-05T00:57:34.069Z,4.73
2022-10-05T00:58:44.719Z,6.77
2022-10-05T00:59:57.461Z,5.17
2022-10-05T01:01:17.909Z,5.07
2022-10-05T01:04:04.224Z,5.53
2022-10-05T01:05:11.862Z,6.03
2022-10-05T01:06:29.867Z,5.87
2022-10-05T01:07:46.213Z,5.60
2022-10-05T01:09:09.949Z,8.27
2022-10-05T01:10:35.537Z,5.67
2022-10-05T01:11:54.751Z,8.50
2022-10-05T01:13:34.690Z,5.97
2022-10-05T01:15:02.101Z,5.70
2022-10-05T01:16:21.102Z,5.90
2022-10-05T01:17:41.882Z,5.57
2022-10-05T01:19:35.846Z,5.27
2022-10-05T01:21:02.035Z,6.23
2022-10-05T01:22:15.393Z,5.73
2022-10-05T01:23:47.914Z,5.40
2022-10-05T01:25:05.394Z,5.97
2022-10-05T01:26:31.390Z,5.63
2022-10-05T01:27:45.429Z,5.87
2022-10-05T01:28:59.842Z,4.87
2022-10-05T01:30:07.265Z,5.97
2022-10-05T01:31:32.307Z,4.93
2022-10-05T01:32:41.742Z,6.43
2022-10-05T01:34:11.562Z,4.90
2022-10-05T01:35:16.058Z,6.40
2022-10-05T01:36:24.044Z,5.37
2022-10-05T01:37:34.461Z,6.40
2022-10-05T01:38:41.683Z,5.37
2022-10-05T01:39:58.322Z,5.10
2022-10-05T01:41:05.952Z,5.00
2022-10-05T01:42:21.271Z,5.33
2022-10-05T01:43:28.595Z,6.07
2022-10-05T01:44:40.230Z,4.57
2022-10-05T01:45:50.815Z,5.20
2022-10-05T01:47:18.425Z,7.80
2022-10-05T01:48:37.562Z,5.27
2022-10-05T01:50:02.945Z,5.10
2022-10-05T01:51:37.965Z,4.50
2022-10-05T01:53:00.563Z,5.00
2022-10-05T01:54:25.235Z,4.87
2022-10-05T01:55:51.321Z,6.20
2022-10-05T01:57:20.759Z,5.00
2022-10-05T01:58:48.279Z,5.40
2022-10-05T02:00:04.059Z,5.67
2022-10-05T02:01:33.616Z,4.90
2022-10-05T02:02:39.806Z,6.23
2022-10-05T02:04:04.864Z,4.73
2022-10-05T02:05:32.511Z,6.10
2022-10-05T02:06:41.366Z,5.27
2022-10-05T02:07:51.254Z,4.90
2022-10-05T02:09:00.918Z,5.30
2022-10-05T02:10:20.241Z,6.17
2022-10-05T02:11:21.908Z,6.17
2022-10-05T02:12:27.262Z,7.73
2022-10-05T02:13:44.180Z,5.40
2022-10-05T02:14:54.228Z,5.67
2022-10-05T02:16:07.279Z,5.63
2022-10-05T02:17:19.298Z,5.80
2022-10-05T02:18:30.524Z,5.00
2022-10-05T02:19:38.242Z,5.20
2022-10-05T02:20:42.392Z,5.10
2022-10-05T02:21:48.968Z,5.70
2022-10-05T02:22:54.320Z,5.63
2022-10-05T02:24:00.928Z,6.00
2022-10-05T02:25:12.758Z,7.77
2022-10-05T02:26:16.716Z,6.90
2022-10-05T02:27:26.009Z,5.67
2022-10-05T02:28:39.429Z,7.60
2022-10-05T02:29:45.608Z,6.00
2022-10-05T02:31:10.461Z,6.10
2022-10-05T02:32:24.040Z,6.03
2022-10-05T02:33:31.168Z,6.33
2022-10-05T02:34:41.700Z,5.80
2022-10-05T02:35:43.269Z,5.90
2022-10-05T02:36:46.211Z,6.23
2022-10-05T02:38:06.258Z,6.03
2022-10-05T02:39:14.943Z,7.30
2022-10-05T02:40:42.688Z,8.53
2022-10-05T02:42:16.075Z,5.87
2022-10-05T02:43:23.459Z,5.80
2022-10-05T02:44:51.009Z,5.97
2022-10-05T02:46:13.887Z,7.43
2022-10-05T02:47:21.806Z,7.30
2022-10-05T02:48:34.269Z,6.23
2022-10-05T02:49:38.828Z,7.20
2022-10-05T02:50:52.674Z,9.70
2022-10-05T02:52:00.016Z,5.97
2022-10-05T02:53:22.320Z,8.27
2022-10-05T02:54:42.606Z,6.73
2022-10-05T02:55:59.470Z,5.57
2022-10-05T02:57:19.388Z,5.67
2022-10-05T02:58:29.111Z,5.87
2022-10-05T03:00:08.652Z,8.17
2022-10-05T03:01:27.903Z,7.00
2022-10-05T03:02:39.698Z,7.50
2022-10-05T03:03:52.300Z,7.27
2022-10-05T03:05:29.259Z,7.40
2022-10-05T03:06:38.656Z,8.77
2022-10-05T03:07:53.468Z,7.57
2022-10-05T03:09:06.418Z,6.40
2022-10-05T03:10:17.338Z,7.97
2022-10-05T03:11:30.235Z,6.20
2022-10-05T03:12:50.090Z,7.47
2022-10-05T03:14:26.144Z,6.07
2022-10-05T03:16:03.366Z,6.80
2022-10-05T03:17:25.448Z,8.27
2022-10-05T03:18:54.036Z,7.83
2022-10-05T03:20:14.349Z,6.70
2022-10-05T03:21:36.413Z,8.97
2022-10-05T03:22:47.022Z,6.43
2022-10-05T03:24:25.890Z,7.80
2022-10-05T03:25:27.379Z,6.60
2022-10-05T03:26:35.280Z,7.10
2022-10-05T03:27:44.898Z,11.87
2022-10-05T03:29:08.666Z,9.07
2022-10-05T03:30:15.953Z,9.53
2022-10-05T03:31:46.398Z,9.90
2022-10-05T03:33:06.522Z,9.03
2022-10-05T03:34:26.360Z,10.53
2022-10-05T03:35:32.705Z,9.40
2022-10-05T03:36:48.769Z,6.67
2022-10-05T03:37:56.250Z,11.13
2022-10-05T03:39:17.953Z,9.87
2022-10-05T03:40:29.628Z,6.93
2022-10-05T03:41:45.933Z,9.10
2022-10-05T03:43:12.397Z,9.13
2022-10-05T03:44:30.410Z,10.73
2022-10-05T03:45:41.311Z,9.40
2022-10-05T03:46:51.516Z,9.53
2022-10-05T03:48:20.323Z,11.83
2022-10-05T03:49:28.092Z,12.40
2022-10-05T03:50:35.047Z,7.60
2022-10-05T03:51:45.414Z,12.80
2022-10-05T03:53:09.275Z,8.67
2022-10-05T03:54:32.426Z,6.77
2022-10-05T03:55:45.432Z,11.57
2022-10-05T03:56:55.769Z,7.93
2022-10-05T03:58:03.220Z,8.07
2022-10-05T03:59:23.002Z,7.40
2022-10-05T04:00:25.625Z,9.20
2022-10-05T04:01:39.025Z,8.23
2022-10-05T04:03:05.195Z,6.70
2022-10-05T04:04:13.677Z,5.60
2022-10-05T04:05:23.613Z,8.67
2022-10-05T04:06:29.972Z,7.23
2022-10-05T04:07:38.816Z,6.07
2022-10-05T04:08:49.378Z,6.27
2022-10-05T04:09:53.107Z,7.17
2022-10-05T04:10:57.905Z,7.03
2022-10-05T04:12:23.902Z,8.90
2022-10-05T04:13:46.114Z,6.30
2022-10-05T04:14:53.774Z,8.13
2022-10-05T04:16:15.865Z,7.93
2022-10-05T04:17:39.420Z,8.00
2022-10-05T04:18:59.166Z,7.70
2022-10-05T04:20:07.135Z,8.27
2022-10-05T04:21:23.642Z,7.93
2022-10-05T04:22:32.005Z,7.10
2022-10-05T04:23:42.980Z,6.17
2022-10-05T04:24:53.245Z,9.57
2022-10-05T04:26:02.358Z,7.30
2022-10-05T04:27:11.208Z,6.77
2022-10-05T04:28:48.806Z,9.77
2022-10-05T04:30:12.441Z,7.47
2022-10-05T04:31:24.063Z,8.13
2022-10-05T04:32:30.929Z,8.30
2022-10-05T04:33:33.391Z,8.60
2022-10-05T04:35:02.537Z,7.27
2022-10-05T04:36:22.069Z,7.50
2022-10-05T04:37:46.246Z,7.73
2022-10-05T04:38:59.560Z,8.07
2022-10-05T04:40:29.745Z,8.40
2022-10-05T04:41:48.498Z,9.10
2022-10-05T04:42:57.985Z,7.40
2022-10-05T04:44:08.962Z,7.93
2022-10-05T04:45:27.439Z,8.13
2022-10-05T04:46:55.729Z,8.33
2022-10-05T04:48:15.256Z,8.27
2022-10-05T04:49:50.935Z,8.37
2022-10-05T04:51:01.386Z,8.63
2022-10-05T04:52:16.584Z,10.23
2022-10-05T04:54:00.060Z,10.43
2022-10-05T04:55:39.096Z,8.87
2022-10-05T04:56:47.580Z,8.43
2022-10-05T04:58:00.646Z,8.77
2022-10-05T04:59:10.155Z,8.33
2022-10-05T05:00:25.535Z,9.27
2022-10-05T05:01:45.117Z,7.97
2022-10-05T05:02:58.747Z,9.07
2022-10-05T05:04:51.860Z,8.00
2022-10-05T05:06:18.525Z,9.20
2022-10-05T05:07:49.375Z,7.93
2022-10-05T05:09:25.303Z,11.47
2022-10-05T05:10:43.904Z,7.60
2022-10-05T05:12:03.874Z,10.60
2022-10-05T05:13:18.333Z,8.43
2022-10-05T05:14:49.478Z,8.53
2022-10-05T05:15:57.034Z,8.97
2022-10-05T05:16:58.555Z,8.87
2022-10-05T05:18:41.120Z,9.27
2022-10-05T05:19:52.353Z,12.43
2022-10-05T05:21:05.810Z,8.97
2022-10-05T05:22:20.799Z,8.73
2022-10-05T05:23:41.073Z,9.50
2022-10-05T05:25:30.313Z,10.70
2022-10-05T05:26:50.887Z,11.13
2022-10-05T05:28:18.147Z,7.90
2022-10-05T05:29:35.950Z,10.20
2022-10-05T05:30:52.900Z,10.30
2022-10-05T05:32:14.120Z,11.17
2022-10-05T05:33:23.318Z,12.03
2022-10-05T05:34:43.278Z,15.00
2022-10-05T05:37:01.830Z,12.27
2022-10-05T05:38:13.733Z,12.30
2022-10-05T05:39:36.789Z,11.57
2022-10-05T05:41:16.389Z,10.60
2022-10-05T05:42:53.069Z,11.47
2022-10-05T05:44:05.256Z,15.23
2022-10-05T05:45:42.994Z,10.27
2022-10-05T05:47:31.241Z,12.37
2022-10-05T05:48:43.074Z,18.33
2022-10-05T05:50:06.336Z,12.47
2022-10-05T05:51:14.724Z,12.10
2022-10-05T05:52:28.909Z,14.03
2022-10-05T05:53:38.093Z,11.53
2022-10-05T05:54:46.217Z,10.70
2022-10-05T05:55:53.112Z,14.37
2022-10-05T05:57:23.305Z,7.93
2022-10-05T05:58:31.675Z,10.07
2022-10-05T05:59:43.786Z,10.70
2022-10-05T06:00:52.142Z,10.47
2022-10-05T06:02:04.895Z,8.90
2022-10-05T06:03:09.556Z,11.57
2022-10-05T06:04:18.967Z,18.03
2022-10-05T06:05:32.647Z,13.10
2022-10-05T06:06:38.227Z,13.93
2022-10-05T06:07:40.394Z,12.47
2022-10-05T06:08:51.225Z,11.10
2022-10-05T06:10:04.221Z,11.17
2022-10-05T06:11:17.020Z,15.10
2022-10-05T06:12:23.608Z,10.07
2022-10-05T06:13:32.726Z,13.10
2022-10-05T06:14:46.972Z,11.87
2022-10-05T06:15:55.886Z,8.57
2022-10-05T06:17:24.122Z,8.10
2022-10-05T06:18:25.867Z,11.67
2022-10-05T06:19:29.285Z,11.93
2022-10-05T06:20:38.287Z,11.90
2022-10-05T06:21:58.107Z,7.80
2022-10-05T06:23:04.383Z,10.83
2022-10-05T06:24:16.679Z,9.57
2022-10-05T06:25:35.222Z,9.40
2022-10-05T06:26:36.721Z,10.83
2022-10-05T06:28:12.563Z,9.67
2022-10-05T06:29:20.582Z,6.43
2022-10-05T06:30:22.539Z,6.33
2022-10-05T06:31:30.496Z,8.77
2022-10-05T06:32:35.030Z,7.93
2022-10-05T06:33:43.960Z,8.33
2022-10-05T06:34:53.378Z,9.43
2022-10-05T06:36:06.955Z,6.83
2022-10-05T06:37:18.854Z,7.30
2022-10-05T06:38:44.718Z,8.27
2022-10-05T06:40:08.062Z,10.00
2022-10-05T06:41:36.155Z,7.07
2022-10-05T06:43:07.610Z,8.43
2022-10-05T06:44:33.792Z,7.53
2022-10-05T06:45:47.910Z,6.90
2022-10-05T06:47:37.244Z,13.83
2022-10-05T06:48:38.785Z,9.90
2022-10-05T06:49:56.323Z,8.10
2022-10-05T06:51:42.392Z,12.43
2022-10-05T06:53:08.680Z,8.07
2022-10-05T06:54:31.351Z,6.70
2022-10-05T06:55:51.125Z,7.47
2022-10-05T06:57:04.580Z,10.53
2022-10-05T06:58:36.649Z,7.13
2022-10-05T06:59:57.610Z,7.67
2022-10-05T07:01:10.962Z,11.67
2022-10-05T07:02:39.890Z,7.67
2022-10-05T07:03:52.065Z,12.47
2022-10-05T07:04:56.298Z,7.80
2022-10-05T07:06:06.265Z,12.30
2022-10-05T07:07:22.976Z,9.10
2022-10-05T07:08:49.266Z,10.93
2022-10-05T07:10:02.268Z,10.77
2022-10-05T07:11:23.074Z,9.63
2022-10-05T07:12:48.792Z,9.00
2022-10-05T07:13:59.246Z,12.10
2022-10-05T07:15:30.377Z,8.73
2022-10-05T07:16:59.083Z,7.90
2022-10-05T07:18:15.713Z,9.10
2022-10-05T07:19:29.263Z,9.50
2022-10-05T07:21:00.100Z,10.20
2022-10-05T07:22:37.181Z,8.17
2022-10-05T07:23:44.679Z,6.67
2022-10-05T07:25:11.160Z,6.60
2022-10-05T07:26:21.946Z,10.37
2022-10-05T07:27:25.651Z,7.33
2022-10-05T07:29:10.736Z,7.87
2022-10-05T07:30:14.957Z,9.30
2022-10-05T07:31:16.483Z,11.37
2022-10-05T07:33:00.314Z,6.13
2022-10-05T07:34:32.567Z,6.37
2022-10-05T07:36:07.957Z,9.13
2022-10-05T07:37:37.908Z,7.67
2022-10-05T07:38:52.493Z,6.80
2022-10-05T07:40:12.113Z,5.67
2022-10-05T07:41:43.573Z,6.40
2022-10-05T07:42:57.590Z,11.37
2022-10-05T07:44:16.088Z,9.67
2022-10-05T07:45:43.345Z,6.97
2022-10-05T07:47:22.334Z,8.10
2022-10-05T07:48:35.452Z,8.13
2022-10-05T07:49:51.673Z,7.03
2022-10-05T07:51:06.642Z,7.70
2022-10-05T07:52:17.174Z,8.80
2022-10-05T07:53:24.809Z,5.17
2022-10-05T07:54:29.702Z,6.57
2022-10-05T07:55:37.294Z,4.63
2022-10-05T07:56:44.952Z,9.97
2022-10-05T07:57:59.594Z,5.77
2022-10-05T07:59:12.336Z,7.17
2022-10-05T08:00:17.840Z,5.10
2022-10-05T08:01:26.875Z,6.13
2022-10-05T08:02:45.728Z,8.83
2022-10-05T08:03:47.196Z,5.43
2022-10-05T08:05:32.118Z,6.93
2022-10-05T08:07:11.336Z,5.87
2022-10-05T08:08:29.766Z,8.60
2022-10-05T08:09:50.518Z,9.10
2022-10-05T08:11:22.010Z,6.20
2022-10-05T08:12:40.146Z,8.50
2022-10-05T08:13:54.710Z,8.53
2022-10-05T08:15:03.284Z,8.93
2022-10-05T08:16:14.434Z,11.03
2022-10-05T08:17:32.816Z,6.97
2022-10-05T08:18:46.336Z,8.50
2022-10-05T08:19:55.956Z,6.30
2022-10-05T08:20:58.563Z,10.37
2022-10-05T08:22:14.050Z,11.23
2022-10-05T08:23:19.855Z,9.90
2022-10-05T08:24:51.610Z,9.00
2022-10-05T08:26:15.987Z,7.40
2022-10-05T08:27:23.528Z,12.40
2022-10-05T08:28:34.209Z,6.27
2022-10-05T08:30:03.013Z,11.03
2022-10-05T08:31:25.197Z,7.10
2022-10-05T08:32:45.333Z,7.33
2022-10-05T08:34:23.032Z,7.83
2022-10-05T08:35:35.468Z,5.40
2022-10-05T08:36:40.051Z,6.53
2022-10-05T08:37:44.154Z,10.37
2022-10-05T08:38:45.732Z,6.57
2022-10-05T08:40:21.508Z,8.33
2022-10-05T08:41:55.959Z,5.23
2022-10-05T08:43:35.596Z,7.53
2022-10-05T08:44:46.066Z,5.13
2022-10-05T08:45:47.661Z,5.23
2022-10-05T08:47:15.904Z,5.43
2022-10-05T08:48:36.132Z,6.37
2022-10-05T08:49:58.694Z,4.07
2022-10-05T08:51:12.853Z,3.30
2022-10-05T08:52:30.715Z,5.80
2022-10-05T08:53:51.063Z,5.03
2022-10-05T08:55:10.943Z,6.60
2022-10-05T08:56:29.474Z,6.80
2022-10-05T08:57:47.655Z,3.87
2022-10-05T08:59:24.526Z,7.30
2022-10-05T09:00:47.620Z,11.13
2022-10-05T09:02:16.351Z,9.83
2022-10-05T09:03:46.022Z,6.43
2022-10-05T09:05:09.219Z,8.20
2022-10-05T09:06:29.456Z,9.97
2022-10-05T09:07:45.348Z,4.43
2022-10-05T09:09:06.260Z,5.57
2022-10-05T09:10:32.708Z,5.80
2022-10-05T09:11:40.779Z,6.63
2022-10-05T09:13:11.537Z,5.43
2022-10-05T09:15:01.340Z,5.83
2022-10-05T09:16:17.923Z,9.37
2022-10-05T09:17:55.862Z,8.23
2022-10-05T09:19:22.849Z,9.43
2022-10-05T09:20:50.856Z,6.83
2022-10-05T09:22:05.087Z,9.50
2022-10-05T09:23:29.661Z,4.90
2022-10-05T09:24:48.769Z,6.67
2022-10-05T09:26:04.121Z,6.03
2022-10-05T09:27:17.480Z,7.40
2022-10-05T09:28:28.049Z,6.43
2022-10-05T09:29:29.566Z,9.00
2022-10-05T09:31:07.959Z,5.67
2022-10-05T09:32:53.338Z,7.53
2022-10-05T09:34:26.197Z,6.83
2022-10-05T09:35:36.936Z,8.63
2022-10-05T09:37:26.459Z,4.90
2022-10-05T09:38:52.263Z,5.43
2022-10-05T09:40:32.892Z,9.83
2022-10-05T09:42:11.618Z,6.50
2022-10-05T09:43:19.145Z,10.73
2022-10-05T09:44:36.377Z,7.40
2022-10-05T09:45:53.893Z,10.50
2022-10-05T09:47:01.408Z,8.37
2022-10-05T09:49:04.448Z,9.77
2022-10-05T09:50:20.754Z,5.57
2022-10-05T09:51:58.837Z,7.13
2022-10-05T09:53:24.802Z,6.67
2022-10-05T09:54:58.532Z,11.40
2022-10-05T09:56:30.504Z,9.63
2022-10-05T09:57:49.381Z,7.67
2022-10-05T09:59:15.497Z,9.63
2022-10-05T10:00:24.179Z,7.90
2022-10-05T10:01:53.580Z,7.13
2022-10-05T10:03:05.303Z,4.97
2022-10-05T10:04:45.182Z,7.63
2022-10-05T10:05:52.326Z,6.37
2022-10-05T10:07:10.763Z,5.55
2022-10-05T10:08:27.283Z,7.60
2022-10-05T10:09:46.204Z,6.57
2022-10-05T10:11:09.122Z,6.50
2022-10-05T10:12:28.800Z,10.83
2022-10-05T10:13:45.152Z,5.07
2022-10-05T10:15:07.646Z,5.80
2022-10-05T10:16:49.646Z,9.20
2022-10-05T10:18:28.723Z,7.13
2022-10-05T10:19:52.261Z,4.77
2022-10-05T10:21:16.852Z,2.83
2022-10-05T10:22:30.358Z,5.20
2022-10-05T10:24:00.187Z,6.67
2022-10-05T10:25:34.745Z,9.90
2022-10-05T10:26:54.993Z,10.23
2022-10-05T10:28:16.282Z,3.47
2022-10-05T10:29:30.159Z,4.17
2022-10-05T10:31:02.164Z,8.30
2022-10-05T10:32:12.795Z,5.33
2022-10-05T10:33:59.428Z,5.27
2022-10-05T10:35:06.902Z,7.07
2022-10-05T10:36:32.629Z,9.47
2022-10-05T10:37:39.584Z,6.10
2022-10-05T10:38:45.139Z,10.43
2022-10-05T10:40:14.517Z,7.70
2022-10-05T10:41:39.188Z,9.63
2022-10-05T10:43:29.509Z,6.00
2022-10-05T10:44:56.439Z,12.80
2022-10-05T10:46:25.320Z,7.50
2022-10-05T10:47:48.064Z,4.93
2022-10-05T10:48:57.451Z,5.07
2022-10-05T10:50:24.277Z,7.43
2022-10-05T10:51:56.640Z,4.37
2022-10-05T10:53:16.989Z,4.53
2022-10-05T10:54:49.837Z,8.57
2022-10-05T10:56:33.376Z,4.23
2022-10-05T10:57:56.738Z,7.83
2022-10-05T10:59:35.677Z,8.20
2022-10-05T11:00:40.268Z,3.33
2022-10-05T11:01:56.776Z,3.70
2022-10-05T11:03:08.525Z,3.40
2022-10-05T11:04:52.866Z,8.75
2022-10-05T11:06:17.293Z,5.00
2022-10-05T11:07:40.747Z,7.33
2022-10-05T11:08:42.230Z,4.40
2022-10-05T11:10:00.827Z,7.07
2022-10-05T11:11:32.957Z,3.75
2022-10-05T11:13:01.682Z,5.03
2022-10-05T11:14:12.127Z,7.50
2022-10-05T11:15:13.765Z,5.40
2022-10-05T11:16:39.439Z,5.20
2022-10-05T11:17:51.140Z,3.93
2022-10-05T11:19:17.427Z,2.83
2022-10-05T11:20:49.823Z,7.73
2022-10-05T11:22:10.823Z,4.03
2022-10-05T11:23:49.713Z,4.90
2022-10-05T11:25:17.576Z,4.55
2022-10-05T11:26:39.989Z,4.00
2022-10-05T11:28:08.292Z,5.53
2022-10-05T11:29:24.112Z,3.47
2022-10-05T11:30:50.486Z,3.60
2022-10-05T11:32:01.631Z,3.47
2022-10-05T11:33:24.946Z,3.28
2022-10-05T11:34:51.641Z,3.30
2022-10-05T11:36:11.344Z,4.20
2022-10-05T11:37:31.867Z,4.20
2022-10-05T11:38:33.380Z,2.50
2022-10-05T11:39:40.759Z,3.90
2022-10-05T11:41:04.236Z,7.80
2022-10-05T11:42:11.721Z,2.33
2022-10-05T11:43:45.140Z,6.78
2022-10-05T11:45:24.740Z,6.55
2022-10-05T11:46:55.642Z,5.35
2022-10-05T11:48:09.430Z,5.38
2022-10-05T11:49:14.023Z,6.88
2022-10-05T11:50:39.624Z,2.72
2022-10-05T11:51:54.811Z,4.05
2022-10-05T11:53:29.568Z,2.33
2022-10-05T11:54:58.618Z,3.08
2022-10-05T11:56:01.733Z,4.97
2022-10-05T11:57:13.605Z,5.28
2022-10-05T11:58:18.056Z,5.40
2022-10-05T11:59:43.265Z,2.20
2022-10-05T12:00:50.154Z,5.28
2022-10-05T12:02:13.437Z,3.30
2022-10-05T12:03:17.592Z,4.13
2022-10-05T12:04:45.469Z,3.65
2022-10-05T12:06:05.289Z,4.35
2022-10-05T12:07:18.943Z,5.97
2022-10-05T12:08:25.409Z,4.78
2022-10-05T12:09:35.339Z,3.65
2022-10-05T12:10:52.582Z,4.43
2022-10-05T12:12:22.078Z,3.90
2022-10-05T12:13:51.239Z,3.97
2022-10-05T12:15:01.829Z,4.53
2022-10-05T12:16:18.202Z,3.90
2022-10-05T12:17:26.182Z,5.10
2022-10-05T12:18:31.136Z,6.45
2022-10-05T12:19:42.561Z,3.08
2022-10-05T12:20:56.725Z,2.25
2022-10-05T12:22:21.919Z,3.17
2022-10-05T12:23:48.444Z,2.10
2022-10-05T12:25:28.624Z,1.73
2022-10-05T12:27:00.935Z,1.63
2022-10-05T12:28:12.369Z,4.38
2022-10-05T12:29:32.221Z,3.25
2022-10-05T12:31:24.723Z,9.73
2022-10-05T12:32:35.275Z,4.38
2022-10-05T12:35:53.699Z,6.00
2022-10-05T12:37:04.728Z,3.38
2022-10-05T12:38:24.380Z,4.47
2022-10-05T12:39:41.985Z,4.40
2022-10-05T12:41:05.429Z,4.47
2022-10-05T12:42:28.285Z,3.53
2022-10-05T12:43:38.524Z,4.40
2022-10-05T12:44:52.117Z,3.75
2022-10-05T12:46:13.185Z,3.80
2022-10-05T12:47:26.934Z,2.95
2022-10-05T12:48:37.654Z,2.13
2022-10-05T12:50:11.439Z,2.20
2022-10-05T12:53:00.110Z,3.17
2022-10-05T12:54:09.313Z,4.03
2022-10-05T12:55:46.037Z,4.05
2022-10-05T12:56:59.169Z,3.97
2022-10-05T13:01:41.727Z,4.32
2022-10-05T13:02:48.335Z,4.60
2022-10-05T13:04:16.004Z,4.55
2022-10-05T13:05:25.350Z,3.53
2022-10-05T13:06:56.060Z,2.95
2022-10-05T13:08:08.007Z,4.50
2022-10-05T13:09:33.940Z,4.93
2022-10-05T13:10:42.595Z,6.45
2022-10-05T13:11:55.033Z,2.58
2022-10-05T13:13:17.567Z,2.85
2022-10-05T13:14:55.457Z,3.13
2022-10-05T13:16:03.185Z,2.88
2022-10-05T13:17:14.897Z,3.53
2022-10-05T13:21:08.130Z,3.95
2022-10-05T13:22:41.101Z,4.05
2022-10-05T13:24:24.106Z,3.42
2022-10-05T13:25:36.716Z,4.38
2022-10-05T13:26:47.310Z,3.75
2022-10-05T13:28:06.936Z,3.15
2022-10-05T13:29:30.278Z,5.88
2022-10-05T13:30:32.353Z,3.42
2022-10-05T13:31:44.693Z,6.03
2022-10-05T13:34:46.031Z,7.80
2022-10-05T13:36:04.970Z,3.90
2022-10-05T13:37:26.986Z,8.93
2022-10-05T13:38:38.928Z,4.78
2022-10-05T13:47:04.690Z,4.72
2022-10-05T13:48:14.020Z,2.08
2022-10-05T13:49:26.513Z,2.50
2022-10-05T13:50:33.447Z,2.33
2022-10-05T13:51:51.689Z,3.03
2022-10-05T13:53:19.666Z,2.20
2022-10-05T13:54:45.813Z,3.70
2022-10-05T13:55:59.934Z,2.45
2022-10-05T13:57:21.213Z,2.47
2022-10-05T13:58:53.285Z,4.03
2022-10-05T14:00:02.504Z,4.50
2022-10-05T14:01:15.961Z,5.03
2022-10-05T14:02:22.916Z,6.15
2022-10-05T14:03:32.256Z,4.38
2022-10-05T14:04:50.865Z,3.97
2022-10-05T14:05:58.130Z,3.63
2022-10-05T14:07:21.412Z,2.90
2022-10-05T14:08:32.251Z,3.83
2022-10-05T14:09:35.061Z,3.13
2022-10-05T14:10:42.927Z,2.58
2022-10-05T14:12:14.786Z,3.05
2022-10-05T14:13:16.243Z,2.03
2022-10-05T14:14:30.433Z,3.70
2022-10-05T14:15:41.972Z,5.18
2022-10-05T14:16:50.988Z,5.28
2022-10-05T14:17:52.772Z,3.05
2022-10-05T14:19:06.500Z,3.05
2022-10-05T14:20:27.694Z,5.95
2022-10-05T14:21:30.754Z,6.43
2022-10-05T14:22:41.619Z,4.25
2022-10-05T14:23:43.256Z,7.57
2022-10-05T14:25:13.688Z,4.78
2022-10-05T14:26:33.250Z,4.63
2022-10-05T14:27:47.971Z,4.55
2022-10-05T14:29:15.263Z,3.50
2022-10-05T14:30:29.124Z,2.67
2022-10-05T14:31:36.028Z,5.72
2022-10-05T14:32:51.409Z,3.60
2022-10-05T14:33:52.957Z,4.25
2022-10-05T14:34:57.171Z,4.13
2022-10-05T14:35:59.762Z,6.68
2022-10-05T14:37:20.939Z,2.90
2022-10-05T14:38:32.664Z,5.70
2022-10-05T14:39:35.447Z,5.57
2022-10-05T14:40:38.330Z,4.38
2022-10-05T14:41:49.023Z,3.03
2022-10-05T14:42:51.438Z,2.83
2022-10-05T14:45:34.245Z,3.03
2022-10-05T14:46:37.130Z,2.95
2022-10-05T14:47:51.964Z,2.17
2022-10-05T14:49:06.551Z,4.15
2022-10-05T14:50:21.302Z,2.45
2022-10-05T14:53:26.253Z,1.45
2022-10-05T14:54:27.769Z,2.95
2022-10-05T14:55:37.326Z,1.67
2022-10-05T14:57:06.710Z,2.55
2022-10-05T14:58:23.737Z,3.33
2022-10-05T14:59:49.182Z,2.22
2022-10-05T15:00:59.728Z,2.83
2022-10-05T15:02:23.366Z,2.38
2022-10-05T15:03:36.776Z,2.53
2022-10-05T15:06:34.674Z,3.03
2022-10-05T15:07:43.879Z,4.38
2022-10-05T15:09:17.272Z,3.83
2022-10-05T15:10:42.223Z,5.07
2022-10-05T15:15:15.265Z,2.83
2022-10-05T15:16:34.339Z,3.15
2022-10-05T15:17:52.524Z,3.70
2022-10-05T15:19:16.726Z,4.75
2022-10-05T15:20:26.380Z,3.03
2022-10-05T15:21:57.262Z,2.25
2022-10-05T15:23:11.271Z,5.45
2022-10-05T15:24:17.477Z,2.28
2022-10-05T15:28:15.510Z,2.20
2022-10-05T15:29:29.583Z,4.72
2022-10-05T15:30:36.733Z,3.22
2022-10-05T15:31:46.663Z,4.07
2022-10-05T15:33:11.054Z,6.13
2022-10-05T15:36:06.400Z,3.65
2022-10-05T15:37:10.787Z,5.15
2022-10-05T15:38:29.325Z,3.10
2022-10-05T15:39:51.365Z,3.72
2022-10-05T15:40:59.149Z,3.20
2022-10-05T15:42:25.324Z,2.92
2022-10-05T15:43:42.404Z,3.03
2022-10-05T15:45:13.901Z,1.83
2022-10-05T15:46:35.582Z,2.83
2022-10-05T15:47:59.412Z,5.80
2022-10-05T15:49:19.976Z,2.70
2022-10-05T15:50:29.716Z,2.97
2022-10-05T15:51:50.777Z,2.53
2022-10-05T15:53:13.947Z,2.45
2022-10-05T15:54:43.340Z,2.80
2022-10-05T15:55:52.396Z,2.30
2022-10-05T15:57:07.299Z,4.75
2022-10-05T15:58:38.736Z,1.67
2022-10-05T15:59:48.866Z,1.52
2022-10-05T16:01:16.125Z,1.50
2022-10-05T16:02:25.549Z,3.07
2022-10-05T16:03:45.762Z,1.67
2022-10-05T16:05:03.808Z,1.40
2022-10-05T16:06:35.698Z,1.07
2022-10-05T16:08:04.328Z,1.50
2022-10-05T16:09:26.913Z,1.67
2022-10-05T16:10:33.917Z,1.10
2022-10-05T16:11:44.008Z,1.30
2022-10-05T16:13:00.702Z,1.73
2022-10-05T16:14:15.431Z,1.00
2022-10-05T16:15:35.760Z,2.13
2022-10-05T16:17:09.827Z,1.20
2022-10-05T16:18:14.070Z,2.90
2022-10-05T16:19:30.008Z,3.23
2022-10-05T16:20:43.681Z,2.50
2022-10-05T16:22:04.541Z,1.60
2022-10-05T16:23:30.192Z,3.13
2022-10-05T16:24:59.513Z,3.50
2022-10-05T16:26:22.181Z,2.50
2022-10-05T16:27:32.813Z,3.53
2022-10-05T16:28:43.090Z,2.00
2022-10-05T16:30:03.698Z,3.90
2022-10-05T16:31:06.130Z,3.33
2022-10-05T16:32:15.904Z,2.37
2022-10-05T16:33:54.441Z,3.30
2022-10-05T16:35:39.480Z,2.83
2022-10-05T16:36:59.118Z,4.40
2022-10-05T16:38:09.987Z,2.23
2022-10-05T16:39:11.448Z,5.37
2022-10-05T16:40:34.818Z,2.07
2022-10-05T16:41:50.130Z,4.60
2022-10-05T16:43:03.705Z,1.70
2022-10-05T16:44:30.125Z,5.10
2022-10-05T16:46:02.377Z,5.37
2022-10-05T16:47:28.316Z,4.47
2022-10-05T16:49:13.899Z,7.97
2022-10-05T16:50:38.295Z,6.37
2022-10-05T16:52:00.299Z,5.70
2022-10-05T16:53:17.425Z,4.47
2022-10-05T16:54:27.389Z,6.33
2022-10-05T16:55:37.609Z,10.73
2022-10-05T16:56:44.212Z,11.30
2022-10-05T16:57:52.463Z,8.00
2022-10-05T16:59:25.001Z,13.97
2022-10-05T17:00:52.009Z,9.70
2022-10-05T17:02:27.449Z,5.90
2022-10-05T17:03:52.982Z,6.87
2022-10-05T17:05:16.386Z,12.83
2022-10-05T17:06:36.963Z,11.53
2022-10-05T17:08:01.634Z,9.20
2022-10-05T17:09:37.531Z,8.90
2022-10-05T17:10:54.922Z,13.90
2022-10-05T17:12:11.507Z,13.17
2022-10-05T17:13:22.222Z,11.47
2022-10-05T17:14:42.866Z,13.40
2022-10-05T17:15:55.281Z,11.73
2022-10-05T17:17:18.666Z,6.30
2022-10-05T17:19:10.485Z,6.70
2022-10-05T17:20:15.649Z,4.87
2022-10-05T17:21:24.019Z,7.00
2022-10-05T17:22:32.064Z,7.57
2022-10-05T17:23:56.053Z,5.33
2022-10-05T17:25:24.316Z,4.40
2022-10-05T17:26:56.422Z,4.23
2022-10-05T17:28:18.935Z,4.20
2022-10-05T17:29:26.996Z,6.23
2022-10-05T17:30:53.901Z,2.80
2022-10-05T17:32:17.377Z,4.40
2022-10-05T17:33:20.814Z,3.93
2022-10-05T17:34:22.299Z,2.27
2022-10-05T17:35:52.091Z,2.60
2022-10-05T17:37:16.643Z,2.97
2022-10-05T17:38:22.471Z,3.07
2022-10-05T17:39:46.981Z,3.53
2022-10-05T17:41:00.761Z,2.67
2022-10-05T17:42:28.706Z,2.87
2022-10-05T17:43:31.841Z,4.73
2022-10-05T17:44:33.546Z,3.30